createdAt,value
2023-02-13T10:36:19.623Z,9.20
2023-02-13T10:39:01.503Z,7.80
2023-02-13T10:41:32.203Z,7.60
2023-02-13T10:44:19.002Z,7.67
2023-02-13T10:46:57.829Z,8.83
2023-02-13T10:49:52.584Z,8.50
2023-02-13T10:52:41.239Z,8.23
2023-02-13T10:55:29.082Z,7.33
2023-02-13T10:58:19.296Z,7.23
2023-02-13T11:00:51.729Z,7.37
2023-02-13T11:03:21.987Z,7.47
2023-02-13T11:05:49.974Z,8.47
2023-02-13T11:08:32.824Z,8.07
2023-02-13T11:11:00.387Z,7.40
2023-02-13T11:13:29.896Z,7.93
2023-02-13T11:16:10.318Z,6.77
2023-02-13T11:18:44.213Z,7.03
2023-02-13T11:21:16.277Z,7.20
2023-02-13T11:23:45.860Z,6.17
2023-02-13T11:26:23.947Z,6.57
2023-02-13T11:28:56.608Z,6.93
2023-02-13T11:31:35.339Z,6.47
2023-02-13T11:35:16.687Z,6.07
2023-02-13T11:37:43.497Z,6.37
2023-02-13T11:40:31.445Z,5.90
2023-02-13T11:42:58.321Z,5.50
2023-02-13T11:45:26.455Z,5.70
2023-02-13T11:47:55.733Z,5.60
2023-02-13T11:50:22.520Z,5.27
2023-02-13T11:53:20.318Z,5.87
2023-02-13T11:56:04.677Z,5.40
2023-02-13T11:58:31.678Z,6.23
2023-02-13T12:01:22.128Z,5.90
2023-02-13T12:04:19.162Z,6.80
2023-02-13T12:07:25.531Z,6.10
2023-02-13T12:10:03.457Z,5.83
2023-02-13T12:12:37.586Z,5.60
2023-02-13T12:15:19.017Z,6.50
2023-02-13T12:17:49.586Z,6.30
2023-02-13T12:20:17.861Z,5.90
2023-02-13T12:22:55.486Z,6.80
2023-02-13T12:25:25.305Z,5.63
2023-02-13T12:28:11.866Z,6.00
2023-02-13T12:30:57.923Z,5.90
2023-02-13T12:33:36.906Z,5.53
2023-02-13T12:36:09.169Z,5.60
2023-02-13T12:38:47.204Z,5.90
2023-02-13T12:41:19.241Z,5.90
2023-02-13T12:44:12.761Z,6.47
2023-02-13T12:47:06.857Z,7.50
2023-02-13T12:49:52.546Z,6.63
2023-02-13T12:52:19.953Z,6.70
2023-02-13T12:55:08.245Z,8.53
2023-02-13T12:58:07.264Z,6.80
2023-02-13T13:01:19.510Z,8.03
2023-02-13T13:04:16.667Z,7.50
2023-02-13T13:07:05.020Z,7.17
2023-02-13T13:09:53.176Z,7.60
2023-02-13T13:12:25.724Z,5.83
2023-02-13T13:15:11.312Z,8.47
2023-02-13T13:17:59.316Z,6.63
2023-02-13T13:20:54.247Z,9.03
2023-02-13T13:23:23.488Z,6.73
2023-02-13T13:25:58.676Z,6.90
2023-02-13T13:28:41.551Z,7.07
2023-02-13T13:31:09.599Z,6.73
2023-02-13T13:33:40.350Z,6.77
2023-02-13T13:36:30.201Z,7.17
2023-02-13T13:39:24.750Z,6.87
2023-02-13T13:42:07.482Z,6.97
2023-02-13T13:45:00.787Z,7.30
2023-02-13T13:48:01.909Z,6.70
2023-02-13T13:50:33.177Z,7.27
2023-02-13T13:53:29.565Z,7.73
2023-02-13T13:55:56.443Z,7.30
2023-02-13T13:58:38.595Z,7.73
2023-02-13T14:01:23.883Z,7.50
2023-02-13T14:03:52.703Z,6.83
2023-02-13T14:06:22.666Z,8.53
2023-02-13T14:08:49.659Z,7.87
2023-02-13T14:11:28.646Z,6.27
2023-02-13T14:13:55.450Z,6.50
2023-02-13T14:16:46.487Z,7.07
2023-02-13T14:19:46.440Z,7.20
2023-02-13T14:22:18.959Z,7.50
2023-02-13T14:24:51.915Z,6.10
2023-02-13T14:27:39.326Z,7.33
2023-02-13T14:30:27.386Z,6.93
2023-02-13T14:32:55.070Z,7.43
2023-02-13T14:35:28.655Z,8.03
2023-02-13T14:38:01.096Z,8.17
2023-02-13T14:40:42.819Z,7.30
2023-02-13T14:43:42.255Z,8.13
2023-02-13T14:46:17.878Z,7.80
2023-02-13T14:49:04.655Z,7.80
2023-02-13T14:51:44.949Z,9.17
2023-02-13T14:54:42.542Z,7.23
2023-02-13T14:57:26.563Z,8.27
2023-02-13T15:00:08.745Z,8.40
2023-02-13T15:02:46.920Z,8.10
2023-02-13T15:05:16.403Z,8.17
2023-02-13T15:07:53.738Z,7.60
2023-02-13T15:10:39.407Z,9.50
2023-02-13T15:13:13.558Z,8.93
2023-02-13T15:15:41.997Z,7.63
2023-02-13T15:18:18.168Z,8.50
2023-02-13T15:20:46.329Z,9.03
2023-02-13T15:23:22.885Z,9.30
2023-02-13T15:26:00.722Z,9.20
2023-02-13T15:28:29.594Z,7.50
2023-02-13T15:31:19.443Z,8.73
2023-02-13T15:33:49.653Z,8.07
2023-02-13T15:36:22.826Z,8.10
2023-02-13T15:38:49.696Z,8.20
2023-02-13T15:41:23.948Z,8.43
2023-02-13T15:43:55.865Z,7.87
2023-02-13T15:46:48.648Z,9.50
2023-02-13T15:49:19.717Z,8.73
2023-02-13T15:51:47.546Z,8.73
2023-02-13T15:54:28.828Z,9.17
2023-02-13T15:56:59.459Z,7.03
2023-02-13T15:59:31.958Z,8.77
2023-02-13T16:02:00.876Z,7.70
2023-02-13T16:04:31.351Z,8.20
2023-02-13T16:06:59.004Z,8.40
2023-02-13T16:09:35.029Z,7.87
2023-02-13T16:12:24.194Z,7.57
2023-02-13T16:15:03.086Z,8.03
2023-02-13T16:17:32.438Z,8.17
2023-02-13T16:20:02.915Z,9.60
2023-02-13T16:22:37.868Z,8.60
2023-02-13T16:25:22.689Z,8.50
2023-02-13T16:27:57.720Z,8.80
2023-02-13T16:30:28.259Z,8.40
2023-02-13T16:33:20.813Z,9.27
2023-02-13T16:35:55.536Z,9.53
2023-02-13T16:38:35.001Z,9.57
2023-02-13T16:41:22.973Z,9.00
2023-02-13T16:43:54.754Z,8.53
2023-02-13T16:46:41.099Z,8.33
2023-02-13T16:49:10.682Z,6.67
2023-02-13T16:51:50.357Z,8.67
2023-02-13T16:54:46.119Z,9.10
2023-02-13T16:57:17.518Z,7.93
2023-02-13T16:59:47.043Z,8.20
2023-02-13T17:02:28.676Z,9.47
2023-02-13T17:05:10.071Z,8.60
2023-02-13T17:07:41.981Z,9.97
2023-02-13T17:10:23.061Z,10.13
2023-02-13T17:12:51.327Z,10.80
2023-02-13T17:15:21.639Z,9.70
2023-02-13T17:17:50.660Z,10.00
2023-02-13T17:20:23.955Z,10.00
2023-02-13T17:22:53.199Z,9.27
2023-02-13T17:25:22.954Z,9.50
2023-02-13T17:27:55.687Z,9.33
2023-02-13T17:30:33.414Z,8.97
2023-02-13T17:33:03.296Z,9.97
2023-02-13T17:35:30.555Z,10.27
2023-02-13T17:37:57.993Z,9.90
2023-02-13T17:40:27.640Z,10.80
2023-02-13T17:42:55.615Z,11.20
2023-02-13T17:45:28.502Z,14.53
2023-02-13T17:47:57.725Z,12.97
2023-02-13T17:50:25.770Z,14.33
2023-02-13T17:52:52.685Z,14.10
2023-02-13T17:55:25.531Z,14.03
2023-02-13T17:57:53.872Z,23.43
2023-02-13T18:00:21.554Z,18.33
2023-02-13T18:02:49.782Z,17.30
2023-02-13T18:05:18.117Z,16.63
2023-02-13T18:07:46.101Z,17.13
2023-02-13T18:10:19.859Z,47.80
2023-02-13T18:12:48.289Z,21.47
2023-02-13T18:15:15.672Z,21.60
2023-02-13T18:17:43.782Z,15.90
2023-02-13T18:20:16.464Z,14.73
2023-02-13T18:22:43.982Z,13.47
2023-02-13T18:25:11.847Z,12.40
2023-02-13T18:27:39.014Z,14.63
2023-02-13T18:30:06.747Z,14.70
2023-02-13T18:32:33.930Z,13.87
2023-02-13T18:35:03.622Z,14.83
2023-02-13T18:37:30.972Z,15.43
2023-02-13T18:39:58.217Z,16.50
2023-02-13T18:42:25.404Z,17.10
2023-02-13T18:44:52.648Z,13.43
2023-02-13T18:47:19.793Z,12.20
2023-02-13T18:49:46.634Z,11.60
2023-02-13T18:52:13.624Z,14.57
2023-02-13T18:54:40.615Z,13.97
2023-02-13T18:57:08.075Z,14.03
2023-02-13T18:59:34.952Z,13.33
2023-02-13T19:02:05.136Z,12.63
2023-02-13T19:04:40.862Z,14.27
2023-02-13T19:07:16.445Z,15.43
2023-02-13T19:09:44.467Z,13.90
2023-02-13T19:12:11.277Z,16.07
2023-02-13T19:14:39.418Z,18.50
2023-02-13T19:17:09.379Z,18.43
2023-02-13T19:19:47.485Z,17.17
2023-02-13T19:22:14.556Z,16.40
2023-02-13T19:24:41.613Z,14.40
2023-02-13T19:27:08.585Z,14.10
2023-02-13T19:29:35.937Z,14.70
2023-02-13T19:32:05.301Z,15.43
2023-02-13T19:34:34.110Z,16.17
2023-02-13T19:37:00.941Z,16.50
2023-02-13T19:39:27.742Z,15.13
2023-02-13T19:41:56.928Z,15.67
2023-02-13T19:44:24.104Z,12.70
2023-02-13T19:46:51.126Z,12.30
2023-02-13T19:49:19.113Z,15.57
2023-02-13T19:51:47.475Z,16.37
2023-02-13T19:54:14.880Z,15.90
2023-02-13T19:56:45.036Z,15.70
2023-02-13T19:59:15.326Z,13.60
2023-02-13T20:01:45.979Z,14.30
2023-02-13T20:04:15.705Z,12.70
2023-02-13T20:06:43.002Z,14.50
2023-02-13T20:09:13.144Z,13.67
2023-02-13T20:11:41.450Z,14.23
2023-02-13T20:14:14.542Z,14.10
2023-02-13T20:16:43.041Z,14.37
2023-02-13T20:19:11.730Z,12.43
2023-02-13T20:21:41.719Z,13.80
2023-02-13T20:24:13.547Z,13.03
2023-02-13T20:26:40.874Z,13.07
2023-02-13T20:29:10.109Z,11.63
2023-02-13T20:31:41.362Z,11.80
2023-02-13T20:34:09.200Z,12.57
2023-02-13T20:36:36.433Z,16.00
2023-02-13T20:39:05.509Z,17.57
2023-02-13T20:41:34.148Z,14.60
2023-02-13T20:44:02.617Z,14.10
2023-02-13T20:46:30.918Z,13.20
2023-02-13T20:49:01.228Z,11.80
2023-02-13T20:51:29.482Z,11.70
2023-02-13T20:53:57.490Z,11.70
2023-02-13T20:56:26.077Z,13.43
2023-02-13T20:58:56.185Z,13.30
2023-02-13T21:01:28.997Z,12.57
2023-02-13T21:03:59.568Z,12.90
2023-02-13T21:06:30.053Z,13.73
2023-02-13T21:08:56.966Z,12.67
2023-02-13T21:11:30.978Z,14.63
2023-02-13T21:13:58.460Z,14.10
2023-02-13T21:16:36.826Z,15.77
2023-02-13T21:19:12.649Z,16.33
2023-02-13T21:21:48.998Z,14.83
2023-02-13T21:24:32.131Z,15.50
2023-02-13T21:27:02.008Z,15.80
2023-02-13T21:29:37.780Z,14.20
2023-02-13T21:32:04.730Z,13.07
2023-02-13T21:34:36.863Z,12.80
2023-02-13T21:37:06.796Z,11.87
2023-02-13T21:39:37.291Z,14.60
2023-02-13T21:42:07.176Z,16.17
2023-02-13T21:44:34.196Z,19.37
2023-02-13T21:47:01.009Z,15.40
2023-02-13T21:49:27.997Z,16.77
2023-02-13T21:51:55.422Z,15.53
2023-02-13T21:54:22.588Z,12.90
2023-02-13T21:56:49.725Z,13.00
2023-02-13T21:59:17.452Z,13.37
2023-02-13T22:01:45.652Z,14.80
2023-02-13T22:04:13.346Z,13.43
2023-02-13T22:06:40.799Z,16.87
2023-02-13T22:09:13.334Z,16.30
2023-02-13T22:11:40.647Z,14.20
2023-02-13T22:14:08.875Z,15.33
2023-02-13T22:16:38.017Z,22.50
2023-02-13T22:19:06.074Z,19.57
2023-02-13T22:21:34.370Z,17.37
2023-02-13T22:24:02.023Z,17.60
2023-02-13T22:26:33.866Z,14.43
2023-02-13T22:29:02.177Z,13.07
2023-02-13T22:31:29.742Z,12.80
2023-02-13T22:34:05.518Z,13.07
2023-02-13T22:36:33.999Z,12.93
2023-02-13T22:39:01.171Z,13.00
2023-02-13T22:41:28.361Z,11.83
2023-02-13T22:43:55.579Z,15.53
2023-02-13T22:46:23.961Z,14.00
2023-02-13T22:48:54.672Z,18.10
2023-02-13T22:51:23.312Z,13.10
2023-02-13T22:53:52.743Z,13.03
2023-02-13T22:56:19.960Z,13.23
2023-02-13T22:58:47.189Z,25.33
2023-02-13T23:01:15.436Z,35.30
2023-02-13T23:03:42.699Z,18.70
2023-02-13T23:06:11.088Z,13.27
2023-02-13T23:08:38.715Z,15.53
2023-02-13T23:11:28.798Z,12.50
2023-02-13T23:13:55.950Z,13.90
2023-02-13T23:16:23.286Z,19.03
2023-02-13T23:18:54.909Z,17.53
2023-02-13T23:21:22.388Z,19.97
2023-02-13T23:23:49.484Z,14.83
2023-02-13T23:26:17.077Z,14.57
2023-02-13T23:28:44.258Z,12.80
